sensor_id;sensor_type;location;lat;lon;timestamp;pressure;altitude;pressure_sealevel;temperature;humidity
63204;BME280;49297;43.210;27.914;2023-02-01T00:00:25;101072.16;;;3.12;62.26
63204;BME280;49297;43.210;27.914;2023-02-01T00:02:51;101073.00;;;3.13;62.06
63204;BME280;49297;43.210;27.914;2023-02-01T00:05:17;101069.56;;;3.12;62.00
63204;BME280;49297;43.210;27.914;2023-02-01T00:07:47;101075.63;;;3.13;61.97
63204;BME280;49297;43.210;27.914;2023-02-01T00:10:14;101075.38;;;3.17;61.73
63204;BME280;49297;43.210;27.914;2023-02-01T00:12:40;101081.47;;;3.18;62.05
63204;BME280;49297;43.210;27.914;2023-02-01T00:15:07;101075.28;;;3.19;62.09
63204;BME280;49297;43.210;27.914;2023-02-01T00:17:33;101077.81;;;3.20;62.06
63204;BME280;49297;43.210;27.914;2023-02-01T00:19:59;101070.84;;;3.21;61.83
63204;BME280;49297;43.210;27.914;2023-02-01T00:22:25;101075.28;;;3.19;61.73
63204;BME280;49297;43.210;27.914;2023-02-01T00:24:50;101077.91;;;3.19;61.96
63204;BME280;49297;43.210;27.914;2023-02-01T00:27:18;101076.31;;;3.16;61.94
63204;BME280;49297;43.210;27.914;2023-02-01T00:29:46;101078.00;;;3.17;61.69
63204;BME280;49297;43.210;27.914;2023-02-01T00:32:13;101079.75;;;3.17;61.79
63204;BME280;49297;43.210;27.914;2023-02-01T00:34:38;101079.94;;;3.14;62.25
63204;BME280;49297;43.210;27.914;2023-02-01T00:37:04;101074.78;;;3.12;62.52
63204;BME280;49297;43.210;27.914;2023-02-01T00:39:31;101070.47;;;3.11;62.73
63204;BME280;49297;43.210;27.914;2023-02-01T00:41:57;101074.03;;;3.10;62.65
63204;BME280;49297;43.210;27.914;2023-02-01T00:44:23;101074.19;;;3.07;62.35
63204;BME280;49297;43.210;27.914;2023-02-01T00:46:50;101071.72;;;3.04;62.31
63204;BME280;49297;43.210;27.914;2023-02-01T00:49:16;101075.50;;;2.98;61.67
63204;BME280;49297;43.210;27.914;2023-02-01T00:51:42;101075.56;;;2.97;61.97
63204;BME280;49297;43.210;27.914;2023-02-01T00:54:09;101077.09;;;3.01;62.38
63204;BME280;49297;43.210;27.914;2023-02-01T00:56:35;101065.78;;;3.00;61.87
63204;BME280;49297;43.210;27.914;2023-02-01T00:59:01;101071.88;;;3.01;62.33
63204;BME280;49297;43.210;27.914;2023-02-01T01:01:27;101071.88;;;3.01;61.93
63204;BME280;49297;43.210;27.914;2023-02-01T01:03:57;101074.56;;;2.99;61.80
63204;BME280;49297;43.210;27.914;2023-02-01T01:06:26;101072.81;;;3.00;62.04
63204;BME280;49297;43.210;27.914;2023-02-01T01:08:54;101077.16;;;2.99;62.43
63204;BME280;49297;43.210;27.914;2023-02-01T01:11:24;101080.03;;;2.95;62.01
63204;BME280;49297;43.210;27.914;2023-02-01T01:13:51;101081.97;;;2.91;62.64
63204;BME280;49297;43.210;27.914;2023-02-01T01:16:18;101084.66;;;2.90;62.71
63204;BME280;49297;43.210;27.914;2023-02-01T01:18:47;101082.13;;;2.88;62.61
63204;BME280;49297;43.210;27.914;2023-02-01T01:21:15;101081.44;;;2.84;62.55
63204;BME280;49297;43.210;27.914;2023-02-01T01:23:44;101082.38;;;2.83;62.84
63204;BME280;49297;43.210;27.914;2023-02-01T01:26:14;101082.53;;;2.80;62.41
63204;BME280;49297;43.210;27.914;2023-02-01T01:28:42;101077.31;;;2.80;62.92
63204;BME280;49297;43.210;27.914;2023-02-01T01:31:09;101074.44;;;2.85;63.08
63204;BME280;49297;43.210;27.914;2023-02-01T01:33:35;101074.44;;;2.85;62.63
63204;BME280;49297;43.210;27.914;2023-02-01T01:36:04;101073.50;;;2.86;62.72
63204;BME280;49297;43.210;27.914;2023-02-01T01:38:31;101074.28;;;2.88;62.27
63204;BME280;49297;43.210;27.914;2023-02-01T01:41:04;101072.44;;;2.90;62.71
63204;BME280;49297;43.210;27.914;2023-02-01T01:46:19;101066.22;;;2.93;62.72
63204;BME280;49297;43.210;27.914;2023-02-01T01:48:50;101067.13;;;2.92;62.74
63204;BME280;49297;43.210;27.914;2023-02-01T01:51:20;101076.81;;;2.90;62.68
63204;BME280;49297;43.210;27.914;2023-02-01T01:54:02;101072.44;;;2.90;62.67
63204;BME280;49297;43.210;27.914;2023-02-01T01:56:30;101078.81;;;2.84;62.42
63204;BME280;49297;43.210;27.914;2023-02-01T01:58:58;101083.16;;;2.85;62.79
63204;BME280;49297;43.210;27.914;2023-02-01T02:01:24;101089.28;;;2.84;62.25
63204;BME280;49297;43.210;27.914;2023-02-01T02:03:57;101083.28;;;2.82;63.00
63204;BME280;49297;43.210;27.914;2023-02-01T02:08:56;101088.66;;;2.79;62.61
63204;BME280;49297;43.210;27.914;2023-02-01T02:11:22;101086.94;;;2.80;62.67
63204;BME280;49297;43.210;27.914;2023-02-01T02:13:51;101092.06;;;2.81;63.01
63204;BME280;49297;43.210;27.914;2023-02-01T02:16:27;101085.22;;;2.79;62.42
63204;BME280;49297;43.210;27.914;2023-02-01T02:28:02;101082.91;;;2.73;62.37
63204;BME280;49297;43.210;27.914;2023-02-01T02:30:45;101091.75;;;2.70;62.75
63204;BME280;49297;43.210;27.914;2023-02-01T02:34:10;101086.69;;;2.67;62.63
63204;BME280;49297;43.210;27.914;2023-02-01T02:39:24;101079.84;;;2.64;62.93
63204;BME280;49297;43.210;27.914;2023-02-01T02:41:57;101087.63;;;2.66;62.22
63204;BME280;49297;43.210;27.914;2023-02-01T02:45:07;101096.09;;;2.71;62.28
63204;BME280;49297;43.210;27.914;2023-02-01T02:50:38;101098.50;;;2.74;62.21
63204;BME280;49297;43.210;27.914;2023-02-01T02:53:34;101099.53;;;2.72;62.09
63204;BME280;49297;43.210;27.914;2023-02-01T02:56:21;101094.22;;;2.73;62.79
63204;BME280;49297;43.210;27.914;2023-02-01T02:59:08;101089.53;;;2.80;62.25
63204;BME280;49297;43.210;27.914;2023-02-01T03:01:54;101087.00;;;2.78;62.03
63204;BME280;49297;43.210;27.914;2023-02-01T03:04:38;101097.38;;;2.80;61.69
63204;BME280;49297;43.210;27.914;2023-02-01T03:07:46;101090.31;;;2.82;61.91
63204;BME280;49297;43.210;27.914;2023-02-01T03:10:07;101088.53;;;2.82;62.22
63204;BME280;49297;43.210;27.914;2023-02-01T03:12:41;101087.63;;;2.83;62.46
63204;BME280;49297;43.210;27.914;2023-02-01T03:15:37;101083.38;;;2.81;62.67
63204;BME280;49297;43.210;27.914;2023-02-01T03:18:16;101090.31;;;2.82;63.35
63204;BME280;49297;43.210;27.914;2023-02-01T03:20:48;101087.84;;;2.79;63.37
63204;BME280;49297;43.210;27.914;2023-02-01T03:23:18;101102.69;;;2.78;63.73
63204;BME280;49297;43.210;27.914;2023-02-01T03:25:47;101104.38;;;2.79;63.78
63204;BME280;49297;43.210;27.914;2023-02-01T03:28:17;101107.13;;;2.76;64.97
63204;BME280;49297;43.210;27.914;2023-02-01T03:30:48;101109.06;;;2.73;65.80
63204;BME280;49297;43.210;27.914;2023-02-01T03:33:19;101102.28;;;2.69;65.68
63204;BME280;49297;43.210;27.914;2023-02-01T03:38:25;101107.59;;;2.67;65.96
63204;BME280;49297;43.210;27.914;2023-02-01T03:41:13;101110.97;;;2.69;66.02
63204;BME280;49297;43.210;27.914;2023-02-01T03:43:53;101115.97;;;2.74;65.65
63204;BME280;49297;43.210;27.914;2023-02-01T03:46:33;101111.53;;;2.76;65.99
63204;BME280;49297;43.210;27.914;2023-02-01T03:49:14;101109.06;;;2.73;65.70
63204;BME280;49297;43.210;27.914;2023-02-01T03:51:43;101111.16;;;2.66;65.39
63204;BME280;49297;43.210;27.914;2023-02-01T03:54:13;101117.75;;;2.56;65.00
63204;BME280;49297;43.210;27.914;2023-02-01T03:56:43;101114.44;;;2.52;65.86
63204;BME280;49297;43.210;27.914;2023-02-01T03:59:11;101120.44;;;2.54;66.00
63204;BME280;49297;43.210;27.914;2023-02-01T04:01:38;101124.75;;;2.55;66.03
63204;BME280;49297;43.210;27.914;2023-02-01T04:04:10;101128.66;;;2.46;66.00
63204;BME280;49297;43.210;27.914;2023-02-01T04:06:37;101148.72;;;2.46;66.32
63204;BME280;49297;43.210;27.914;2023-02-01T04:09:03;101141.81;;;2.45;66.88
63204;BME280;49297;43.210;27.914;2023-02-01T04:11:30;101143.66;;;2.43;67.12
63204;BME280;49297;43.210;27.914;2023-02-01T04:13:56;101142.66;;;2.45;67.91
63204;BME280;49297;43.210;27.914;2023-02-01T04:16:22;101150.41;;;2.47;67.51
63204;BME280;49297;43.210;27.914;2023-02-01T04:18:49;101149.66;;;2.45;68.16
63204;BME280;49297;43.210;27.914;2023-02-01T04:21:32;101141.13;;;2.41;68.30
63204;BME280;49297;43.210;27.914;2023-02-01T04:23:58;101141.31;;;2.37;68.23
63204;BME280;49297;43.210;27.914;2023-02-01T04:26:25;101158.78;;;2.36;68.44
63204;BME280;49297;43.210;27.914;2023-02-01T04:28:51;101152.84;;;2.33;68.62
63204;BME280;49297;43.210;27.914;2023-02-01T04:31:19;101144.25;;;2.31;68.66
63204;BME280;49297;43.210;27.914;2023-02-01T04:33:54;101147.00;;;2.27;68.56
63204;BME280;49297;43.210;27.914;2023-02-01T04:36:23;101150.44;;;2.28;69.10
63204;BME280;49297;43.210;27.914;2023-02-01T04:38:51;101148.91;;;2.24;69.14
63204;BME280;49297;43.210;27.914;2023-02-01T04:41:20;101160.31;;;2.23;69.27
63204;BME280;49297;43.210;27.914;2023-02-01T04:43:49;101154.28;;;2.21;69.08
63204;BME280;49297;43.210;27.914;2023-02-01T04:46:18;101160.44;;;2.20;69.73
63204;BME280;49297;43.210;27.914;2023-02-01T04:48:44;101160.44;;;2.20;69.67
63204;BME280;49297;43.210;27.914;2023-02-01T04:51:12;101162.97;;;2.21;69.90
63204;BME280;49297;43.210;27.914;2023-02-01T04:53:40;101165.66;;;2.20;69.96
63204;BME280;49297;43.210;27.914;2023-02-01T04:56:06;101164.19;;;2.14;69.99
63204;BME280;49297;43.210;27.914;2023-02-01T04:58:34;101174.72;;;2.13;70.25
63204;BME280;49297;43.210;27.914;2023-02-01T05:01:05;101189.81;;;2.06;71.12
63204;BME280;49297;43.210;27.914;2023-02-01T05:03:33;101181.34;;;2.01;71.16
63204;BME280;49297;43.210;27.914;2023-02-01T05:05:59;101183.38;;;1.94;71.16
63204;BME280;49297;43.210;27.914;2023-02-01T05:08:26;101185.47;;;1.87;70.78
63204;BME280;49297;43.210;27.914;2023-02-01T05:10:54;101181.19;;;1.85;71.33
63204;BME280;49297;43.210;27.914;2023-02-01T05:13:22;101192.72;;;1.81;71.12
63204;BME280;49297;43.210;27.914;2023-02-01T05:16:13;101201.81;;;1.72;71.43
63204;BME280;49297;43.210;27.914;2023-02-01T05:18:41;101201.81;;;1.72;72.16
63204;BME280;49297;43.210;27.914;2023-02-01T05:21:07;101204.41;;;1.72;72.26
63204;BME280;49297;43.210;27.914;2023-02-01T05:23:33;101210.63;;;1.69;72.21
63204;BME280;49297;43.210;27.914;2023-02-01T05:26:19;101209.84;;;1.67;72.17
63204;BME280;49297;43.210;27.914;2023-02-01T05:28:47;101220.44;;;1.64;72.44
63204;BME280;49297;43.210;27.914;2023-02-01T05:31:13;101229.09;;;1.65;72.87
63204;BME280;49297;43.210;27.914;2023-02-01T05:33:39;101225.66;;;1.64;72.74
63204;BME280;49297;43.210;27.914;2023-02-01T05:36:06;101227.38;;;1.64;72.50
63204;BME280;49297;43.210;27.914;2023-02-01T05:38:32;101222.16;;;1.64;72.46
63204;BME280;49297;43.210;27.914;2023-02-01T05:40:58;101226.50;;;1.65;72.59
63204;BME280;49297;43.210;27.914;2023-02-01T05:43:24;101236.03;;;1.66;72.35
63204;BME280;49297;43.210;27.914;2023-02-01T05:45:53;101235.88;;;1.69;72.89
63204;BME280;49297;43.210;27.914;2023-02-01T05:48:19;101233.31;;;1.67;72.72
63204;BME280;49297;43.210;27.914;2023-02-01T05:50:46;101233.41;;;1.66;73.00
63204;BME280;49297;43.210;27.914;2023-02-01T05:53:13;101239.53;;;1.65;72.78
63204;BME280;49297;43.210;27.914;2023-02-01T05:55:38;101238.53;;;1.67;72.75
63204;BME280;49297;43.210;27.914;2023-02-01T05:58:05;101235.81;;;1.70;72.44
63204;BME280;49297;43.210;27.914;2023-02-01T06:00:32;101235.75;;;1.72;72.32
63204;BME280;49297;43.210;27.914;2023-02-01T06:02:59;101241.88;;;1.71;72.26
63204;BME280;49297;43.210;27.914;2023-02-01T06:05:27;101236.53;;;1.74;72.64
63204;BME280;49297;43.210;27.914;2023-02-01T06:07:53;101244.41;;;1.73;72.37
63204;BME280;49297;43.210;27.914;2023-02-01T06:10:19;101245.34;;;1.71;71.97
63204;BME280;49297;43.210;27.914;2023-02-01T06:12:45;101241.03;;;1.70;72.09
63204;BME280;49297;43.210;27.914;2023-02-01T06:15:14;101246.91;;;1.76;72.72
63204;BME280;49297;43.210;27.914;2023-02-01T06:17:45;101247.31;;;1.66;72.56
63204;BME280;49297;43.210;27.914;2023-02-01T06:20:12;101243.50;;;1.74;72.34
63204;BME280;49297;43.210;27.914;2023-02-01T06:22:39;101251.13;;;1.78;71.89
63204;BME280;49297;43.210;27.914;2023-02-01T06:25:09;101258.63;;;1.86;72.17
63204;BME280;49297;43.210;27.914;2023-02-01T06:27:41;101256.69;;;1.91;72.20
63204;BME280;49297;43.210;27.914;2023-02-01T06:30:08;101252.16;;;1.95;72.04
63204;BME280;49297;43.210;27.914;2023-02-01T06:32:34;101255.31;;;2.01;71.81
63204;BME280;49297;43.210;27.914;2023-02-01T06:35:00;101259.56;;;2.04;72.21
63204;BME280;49297;43.210;27.914;2023-02-01T06:37:27;101256.84;;;2.07;71.99
63204;BME280;49297;43.210;27.914;2023-02-01T06:39:57;101251.44;;;2.10;71.82
63204;BME280;49297;43.210;27.914;2023-02-01T06:42:29;101255.84;;;2.09;71.39
63204;BME280;49297;43.210;27.914;2023-02-01T06:44:55;101255.84;;;2.09;71.34
63204;BME280;49297;43.210;27.914;2023-02-01T06:47:21;101265.28;;;2.12;71.45
63204;BME280;49297;43.210;27.914;2023-02-01T06:49:48;101259.34;;;2.08;71.38
63204;BME280;49297;43.210;27.914;2023-02-01T06:52:14;101259.44;;;2.07;71.01
63204;BME280;49297;43.210;27.914;2023-02-01T06:54:40;101263.72;;;2.08;71.27
63204;BME280;49297;43.210;27.914;2023-02-01T06:57:06;101264.31;;;2.15;71.08
63204;BME280;49297;43.210;27.914;2023-02-01T06:59:32;101275.34;;;2.21;71.17
63204;BME280;49297;43.210;27.914;2023-02-01T07:01:58;101285.56;;;2.26;70.87
63204;BME280;49297;43.210;27.914;2023-02-01T07:04:24;101279.44;;;2.27;70.93
63204;BME280;49297;43.210;27.914;2023-02-01T07:06:50;101273.44;;;2.25;71.08
63204;BME280;49297;43.210;27.914;2023-02-01T07:09:17;101278.50;;;2.28;70.81
63204;BME280;49297;43.210;27.914;2023-02-01T07:11:43;101280.28;;;2.27;70.48
63204;BME280;49297;43.210;27.914;2023-02-01T07:14:10;101274.13;;;2.28;70.35
63204;BME280;49297;43.210;27.914;2023-02-01T07:16:38;101276.59;;;2.32;70.98
63204;BME280;49297;43.210;27.914;2023-02-01T07:19:04;101280.00;;;2.34;70.59
63204;BME280;49297;43.210;27.914;2023-02-01T07:21:30;101279.19;;;2.32;70.62
63204;BME280;49297;43.210;27.914;2023-02-01T07:23:56;101273.78;;;2.36;70.67
63204;BME280;49297;43.210;27.914;2023-02-01T07:26:22;101277.94;;;2.40;70.77
63204;BME280;49297;43.210;27.914;2023-02-01T07:28:48;101276.66;;;2.49;70.72
63204;BME280;49297;43.210;27.914;2023-02-01T07:31:18;101269.19;;;2.60;70.63
63204;BME280;49297;43.210;27.914;2023-02-01T07:33:49;101276.41;;;2.73;70.39
63204;BME280;49297;43.210;27.914;2023-02-01T07:36:18;101269.06;;;2.81;69.65
63204;BME280;49297;43.210;27.914;2023-02-01T07:38:45;101272.22;;;2.88;69.69
63204;BME280;49297;43.210;27.914;2023-02-01T07:41:12;101267.56;;;2.94;69.47
63204;BME280;49297;43.210;27.914;2023-02-01T07:43:40;101271.38;;;3.04;68.66
63204;BME280;49297;43.210;27.914;2023-02-01T07:46:06;101269.31;;;3.11;68.89
63204;BME280;49297;43.210;27.914;2023-02-01T07:48:33;101272.50;;;3.18;68.07
63204;BME280;49297;43.210;27.914;2023-02-01T07:51:04;101275.81;;;3.21;67.79
63204;BME280;49297;43.210;27.914;2023-02-01T07:53:33;101266.03;;;3.25;67.38
63204;BME280;49297;43.210;27.914;2023-02-01T07:56:01;101277.03;;;3.32;67.02
63204;BME280;49297;43.210;27.914;2023-02-01T07:58:27;101279.47;;;3.35;66.68
63204;BME280;49297;43.210;27.914;2023-02-01T08:00:54;101282.78;;;3.38;67.22
63204;BME280;49297;43.210;27.914;2023-02-01T08:03:39;101276.66;;;3.39;66.84
63204;BME280;49297;43.210;27.914;2023-02-01T08:06:07;101277.19;;;3.46;66.79
63204;BME280;49297;43.210;27.914;2023-02-01T08:08:33;101276.94;;;3.51;66.73
63204;BME280;49297;43.210;27.914;2023-02-01T08:11:01;101271.31;;;3.58;66.41
63204;BME280;49297;43.210;27.914;2023-02-01T08:13:28;101280.56;;;3.66;65.96
63204;BME280;49297;43.210;27.914;2023-02-01T08:16:03;101274.16;;;3.71;65.65
63204;BME280;49297;43.210;27.914;2023-02-01T08:18:34;101281.59;;;3.79;66.04
63204;BME280;49297;43.210;27.914;2023-02-01T08:21:05;101278.69;;;3.85;65.62
63204;BME280;49297;43.210;27.914;2023-02-01T08:23:32;101279.19;;;3.92;65.63
63204;BME280;49297;43.210;27.914;2023-02-01T08:28:31;101291.97;;;3.98;65.78
63204;BME280;49297;43.210;27.914;2023-02-01T08:31:04;101291.44;;;3.91;65.78
63204;BME280;49297;43.210;27.914;2023-02-01T08:33:32;101285.72;;;4.00;65.66
63204;BME280;49297;43.210;27.914;2023-02-01T08:36:01;101292.25;;;4.09;65.28
63204;BME280;49297;43.210;27.914;2023-02-01T08:38:28;101290.16;;;4.16;64.31
63204;BME280;49297;43.210;27.914;2023-02-01T08:40:57;101286.69;;;4.31;64.58
63204;BME280;49297;43.210;27.914;2023-02-01T08:43:24;101298.63;;;4.37;64.40
63204;BME280;49297;43.210;27.914;2023-02-01T08:45:54;101298.81;;;4.50;64.23
63204;BME280;49297;43.210;27.914;2023-02-01T08:48:20;101297.53;;;4.57;64.26
63204;BME280;49297;43.210;27.914;2023-02-01T08:50:55;101294.16;;;4.71;64.16
63204;BME280;49297;43.210;27.914;2023-02-01T08:53:22;101287.63;;;4.78;63.20
63204;BME280;49297;43.210;27.914;2023-02-01T08:55:49;101299.72;;;4.81;63.43
63204;BME280;49297;43.210;27.914;2023-02-01T08:58:15;101297.06;;;4.96;63.51
63204;BME280;49297;43.210;27.914;2023-02-01T09:00:43;101291.78;;;5.12;63.12
63204;BME280;49297;43.210;27.914;2023-02-01T09:03:11;101291.00;;;5.26;63.24
63204;BME280;49297;43.210;27.914;2023-02-01T09:05:39;101282.22;;;5.42;62.65
63204;BME280;49297;43.210;27.914;2023-02-01T09:08:06;101291.34;;;5.50;61.99
63204;BME280;49297;43.210;27.914;2023-02-01T09:10:33;101293.78;;;5.53;61.79
63204;BME280;49297;43.210;27.914;2023-02-01T09:13:00;101292.75;;;5.56;61.32
63204;BME280;49297;43.210;27.914;2023-02-01T09:15:27;101292.09;;;5.52;60.26
63204;BME280;49297;43.210;27.914;2023-02-01T09:18:00;101285.25;;;5.50;59.63
63204;BME280;49297;43.210;27.914;2023-02-01T09:20:28;101287.47;;;5.42;59.90
63204;BME280;49297;43.210;27.914;2023-02-01T09:22:55;101274.88;;;5.32;59.74
63204;BME280;49297;43.210;27.914;2023-02-01T09:25:21;101271.09;;;5.22;59.62
63204;BME280;49297;43.210;27.914;2023-02-01T09:27:47;101267.13;;;5.15;59.24
63204;BME280;49297;43.210;27.914;2023-02-01T09:30:13;101265.47;;;5.14;59.84
63204;BME280;49297;43.210;27.914;2023-02-01T09:32:40;101255.34;;;5.22;59.47
63204;BME280;49297;43.210;27.914;2023-02-01T09:35:07;101251.03;;;5.21;59.73
63204;BME280;49297;43.210;27.914;2023-02-01T09:37:33;101262.88;;;5.28;59.97
63204;BME280;49297;43.210;27.914;2023-02-01T09:40:00;101256.06;;;5.40;59.50
63204;BME280;49297;43.210;27.914;2023-02-01T09:42:47;101241.44;;;5.50;59.75
63204;BME280;49297;43.210;27.914;2023-02-01T09:45:35;101242.94;;;5.55;59.55
63204;BME280;49297;43.210;27.914;2023-02-01T09:48:15;101248.28;;;5.53;58.46
63204;BME280;49297;43.210;27.914;2023-02-01T09:50:52;101237.88;;;5.51;58.48
63204;BME280;49297;43.210;27.914;2023-02-01T09:53:27;101232.81;;;5.63;58.64
63204;BME280;49297;43.210;27.914;2023-02-01T09:56:11;101243.13;;;5.66;57.96
63204;BME280;49297;43.210;27.914;2023-02-01T09:58:42;101242.88;;;5.70;58.23
63204;BME280;49297;43.210;27.914;2023-02-01T10:01:18;101227.09;;;5.85;58.09
63204;BME280;49297;43.210;27.914;2023-02-01T10:03:45;101235.09;;;5.98;58.10
63204;BME280;49297;43.210;27.914;2023-02-01T10:07:20;101230.56;;;6.14;57.08
63204;BME280;49297;43.210;27.914;2023-02-01T10:12:55;101200.03;;;6.53;56.32
63204;BME280;49297;43.210;27.914;2023-02-01T10:15:44;101205.31;;;6.53;56.38
63204;BME280;49297;43.210;27.914;2023-02-01T10:27:01;101183.41;;;6.53;56.17
63204;BME280;49297;43.210;27.914;2023-02-01T10:29:36;101175.94;;;6.59;55.83
63204;BME280;49297;43.210;27.914;2023-02-01T10:32:29;101173.69;;;6.80;55.50
63204;BME280;49297;43.210;27.914;2023-02-01T10:35:02;101180.78;;;7.05;55.67
63204;BME280;49297;43.210;27.914;2023-02-01T10:37:33;101167.13;;;7.13;54.91
63204;BME280;49297;43.210;27.914;2023-02-01T10:40:23;101173.66;;;7.20;54.33
63204;BME280;49297;43.210;27.914;2023-02-01T10:43:00;101176.69;;;7.27;53.88
63204;BME280;49297;43.210;27.914;2023-02-01T10:45:30;101173.44;;;7.36;53.50
63204;BME280;49297;43.210;27.914;2023-02-01T10:47:59;101162.28;;;7.46;53.08
63204;BME280;49297;43.210;27.914;2023-02-01T10:53:23;101149.81;;;7.60;52.82
63204;BME280;49297;43.210;27.914;2023-02-01T10:55:54;101152.56;;;7.59;53.17
63204;BME280;49297;43.210;27.914;2023-02-01T10:58:28;101150.53;;;7.62;52.70
63204;BME280;49297;43.210;27.914;2023-02-01T11:01:03;101156.53;;;7.65;52.67
63204;BME280;49297;43.210;27.914;2023-02-01T11:03:53;101155.59;;;7.66;52.03
63204;BME280;49297;43.210;27.914;2023-02-01T11:08:54;101149.06;;;7.71;52.25
63204;BME280;49297;43.210;27.914;2023-02-01T11:11:21;101153.25;;;7.87;52.40
63204;BME280;49297;43.210;27.914;2023-02-01T11:13:57;101150.16;;;8.06;50.82
63204;BME280;49297;43.210;27.914;2023-02-01T11:16:37;101149.63;;;8.25;50.86
63204;BME280;49297;43.210;27.914;2023-02-01T11:19:04;101141.47;;;8.16;49.51
63204;BME280;49297;43.210;27.914;2023-02-01T11:21:36;101148.00;;;8.11;50.08
63204;BME280;49297;43.210;27.914;2023-02-01T11:24:04;101148.56;;;8.03;49.70
63204;BME280;49297;43.210;27.914;2023-02-01T11:26:33;101133.19;;;7.84;49.44
63204;BME280;49297;43.210;27.914;2023-02-01T11:29:04;101143.16;;;7.68;49.31
63204;BME280;49297;43.210;27.914;2023-02-01T11:31:34;101129.91;;;7.56;49.89
63204;BME280;49297;43.210;27.914;2023-02-01T11:36:40;101125.59;;;7.42;50.67
63204;BME280;49297;43.210;27.914;2023-02-01T11:44:38;101121.25;;;7.41;50.56
63204;BME280;49297;43.210;27.914;2023-02-01T11:50:12;101112.28;;;7.57;50.62
63204;BME280;49297;43.210;27.914;2023-02-01T11:58:39;101106.13;;;7.82;50.40
63204;BME280;49297;43.210;27.914;2023-02-01T12:09:21;101097.72;;;8.25;49.06
63204;BME280;49297;43.210;27.914;2023-02-01T12:12:48;101096.47;;;8.18;49.93
63204;BME280;49297;43.210;27.914;2023-02-01T12:15:12;101112.75;;;8.12;49.51
63204;BME280;49297;43.210;27.914;2023-02-01T12:20:57;101102.84;;;7.78;50.19
63204;BME280;49297;43.210;27.914;2023-02-01T12:27:00;101112.59;;;7.65;50.34
63204;BME280;49297;43.210;27.914;2023-02-01T12:34:54;101096.81;;;7.39;50.64
63204;BME280;49297;43.210;27.914;2023-02-01T12:37:57;101097.25;;;7.33;50.65
63204;BME280;49297;43.210;27.914;2023-02-01T12:46:16;101104.63;;;6.90;51.19
63204;BME280;49297;43.210;27.914;2023-02-01T12:49:11;101103.25;;;6.97;51.10
63204;BME280;49297;43.210;27.914;2023-02-01T12:51:42;101095.59;;;7.19;50.91
63204;BME280;49297;43.210;27.914;2023-02-01T12:54:22;101093.31;;;7.52;49.17
63204;BME280;49297;43.210;27.914;2023-02-01T12:57:15;101089.25;;;7.85;48.53
63204;BME280;49297;43.210;27.914;2023-02-01T12:59:56;101086.72;;;8.07;48.03
63204;BME280;49297;43.210;27.914;2023-02-01T13:02:59;101091.22;;;7.94;48.18
63204;BME280;49297;43.210;27.914;2023-02-01T13:08:48;101087.50;;;7.72;49.28
63204;BME280;49297;43.210;27.914;2023-02-01T13:11:22;101086.28;;;7.52;48.88
63204;BME280;49297;43.210;27.914;2023-02-01T13:14:42;101086.22;;;7.28;49.37
63204;BME280;49297;43.210;27.914;2023-02-01T13:17:23;101077.25;;;7.18;49.54
63204;BME280;49297;43.210;27.914;2023-02-01T13:19:59;101077.78;;;7.10;50.21
63204;BME280;49297;43.210;27.914;2023-02-01T13:22:43;101075.69;;;7.02;50.17
63204;BME280;49297;43.210;27.914;2023-02-01T13:27:36;101066.41;;;6.97;50.59
63204;BME280;49297;43.210;27.914;2023-02-01T13:30:23;101070.75;;;6.98;49.94
63204;BME280;49297;43.210;27.914;2023-02-01T13:32:59;101080.53;;;6.96;50.32
63204;BME280;49297;43.210;27.914;2023-02-01T13:35:37;101076.00;;;6.98;50.10
63204;BME280;49297;43.210;27.914;2023-02-01T13:41:35;101068.84;;;7.00;50.32
63204;BME280;49297;43.210;27.914;2023-02-01T13:44:11;101071.06;;;7.06;49.83
63204;BME280;49297;43.210;27.914;2023-02-01T13:46:41;101072.94;;;7.04;50.09
63204;BME280;49297;43.210;27.914;2023-02-01T13:49:27;101080.09;;;7.02;50.05
63204;BME280;49297;43.210;27.914;2023-02-01T13:51:56;101086.34;;;7.01;50.30
63204;BME280;49297;43.210;27.914;2023-02-01T13:54:29;101082.53;;;6.92;50.81
63204;BME280;49297;43.210;27.914;2023-02-01T13:56:56;101080.94;;;6.90;50.77
63204;BME280;49297;43.210;27.914;2023-02-01T14:05:54;101090.97;;;6.84;51.07
63204;BME280;49297;43.210;27.914;2023-02-01T14:21:34;101092.75;;;6.84;52.97
63204;BME280;49297;43.210;27.914;2023-02-01T14:24:24;101090.00;;;6.85;53.11
63204;BME280;49297;43.210;27.914;2023-02-01T14:26:51;101088.97;;;6.88;53.10
63204;BME280;49297;43.210;27.914;2023-02-01T14:42:24;101095.25;;;6.73;53.95
63204;BME280;49297;43.210;27.914;2023-02-01T14:44:53;101082.84;;;6.75;54.01
63204;BME280;49297;43.210;27.914;2023-02-01T14:49:56;101085.66;;;6.72;54.13
63204;BME280;49297;43.210;27.914;2023-02-01T14:55:53;101096.91;;;6.61;54.67
63204;BME280;49297;43.210;27.914;2023-02-01T15:01:33;101090.72;;;6.62;54.71
63204;BME280;49297;43.210;27.914;2023-02-01T15:09:32;101090.09;;;6.58;54.92
63204;BME280;49297;43.210;27.914;2023-02-01T15:12:16;101078.28;;;6.51;54.71
63204;BME280;49297;43.210;27.914;2023-02-01T15:17:36;101095.09;;;6.48;55.29
63204;BME280;49297;43.210;27.914;2023-02-01T15:20:15;101096.06;;;6.47;55.41
63204;BME280;49297;43.210;27.914;2023-02-01T15:22:58;101089.44;;;6.42;55.29
63204;BME280;49297;43.210;27.914;2023-02-01T15:25:34;101089.53;;;6.40;55.19
63204;BME280;49297;43.210;27.914;2023-02-01T15:28:04;101085.28;;;6.38;55.56
63204;BME280;49297;43.210;27.914;2023-02-01T15:30:37;101095.06;;;6.36;55.44
63204;BME280;49297;43.210;27.914;2023-02-01T15:33:15;101090.88;;;6.33;55.72
63204;BME280;49297;43.210;27.914;2023-02-01T15:35:49;101086.72;;;6.29;55.83
63204;BME280;49297;43.210;27.914;2023-02-01T15:46:23;101093.56;;;6.19;56.61